createdAt,value
2019-04-22T00:01:55.296Z,3.33
2019-04-22T00:04:33.699Z,3.77
2019-04-22T00:07:08.699Z,3.40
2019-04-22T00:09:45.757Z,3.65
2019-04-22T00:12:16.738Z,3.90
2019-04-22T00:14:35.154Z,4.00
2019-04-22T00:17:33.520Z,3.10
2019-04-22T00:19:43.590Z,4.03
2019-04-22T00:22:07.759Z,3.45
2019-04-22T00:24:39.112Z,3.65
2019-04-22T00:27:03.897Z,3.92
2019-04-22T00:29:50.143Z,3.62
2019-04-22T00:32:11.389Z,3.67
2019-04-22T00:35:00.556Z,7.22
2019-04-22T00:37:37.871Z,3.98
2019-04-22T00:39:57.431Z,4.00
2019-04-22T00:45:03.268Z,4.47
2019-04-22T00:47:30.572Z,3.95
2019-04-22T00:52:25.168Z,3.62
2019-04-22T00:55:01.887Z,3.85
2019-04-22T00:57:21.511Z,3.50
2019-04-22T00:59:52.249Z,3.62
2019-04-22T01:02:24.555Z,3.60
2019-04-22T01:05:00.729Z,3.10
2019-04-22T01:07:17.591Z,3.75
2019-04-22T01:09:51.990Z,3.47
2019-04-22T01:12:25.031Z,3.10
2019-04-22T01:14:42.937Z,3.35
2019-04-22T01:17:12.065Z,3.72
2019-04-22T01:19:52.997Z,3.52
2019-04-22T01:22:13.680Z,3.47
2019-04-22T01:24:40.257Z,3.17
2019-04-22T01:27:07.956Z,3.65
2019-04-22T01:29:34.944Z,3.27
2019-04-22T01:31:51.353Z,4.03
2019-04-22T01:34:33.436Z,3.35
2019-04-22T01:37:03.485Z,5.53
2019-04-22T01:39:43.587Z,3.92
2019-04-22T01:42:29.879Z,4.15
2019-04-22T01:44:40.533Z,3.80
2019-04-22T01:47:10.115Z,4.00
2019-04-22T01:49:40.410Z,3.98
2019-04-22T01:52:07.776Z,3.90
2019-04-22T01:54:45.481Z,3.72
2019-04-22T01:57:03.314Z,4.08
2019-04-22T01:59:30.186Z,3.67
2019-04-22T02:02:02.956Z,3.45
2019-04-22T02:04:38.179Z,4.42
2019-04-22T02:07:03.211Z,4.00
2019-04-22T02:14:35.721Z,3.70
2019-04-22T02:17:01.938Z,3.83
2019-04-22T02:19:31.177Z,3.85
2019-04-22T02:21:55.659Z,4.20
2019-04-22T02:24:33.476Z,3.98
2019-04-22T02:26:56.771Z,4.45
2019-04-22T02:29:32.610Z,5.53
2019-04-22T02:31:59.530Z,4.25
2019-04-22T02:39:20.071Z,4.45
2019-04-22T02:41:51.901Z,4.70
2019-04-22T02:51:36.996Z,5.25
2019-04-22T02:54:36.460Z,5.08
2019-04-22T03:01:44.844Z,4.50
2019-04-22T03:04:14.702Z,5.15
2019-04-22T03:06:41.837Z,4.55
2019-04-22T03:14:04.735Z,5.67
2019-04-22T03:21:31.331Z,5.95
2019-04-22T03:24:23.674Z,5.28
2019-04-22T03:26:31.745Z,5.37
2019-04-22T03:28:58.703Z,5.30
2019-04-22T03:35:15.946Z,5.67
2019-04-22T03:37:17.599Z,4.90
2019-04-22T03:39:37.774Z,6.12
2019-04-22T03:46:52.545Z,5.22
2019-04-22T03:49:28.247Z,5.65
2019-04-22T03:54:19.289Z,5.42
2019-04-22T03:59:19.943Z,6.08
2019-04-22T04:01:44.166Z,6.33
2019-04-22T04:06:54.619Z,6.40
2019-04-22T04:09:09.531Z,5.90
2019-04-22T04:11:43.215Z,6.53
2019-04-22T04:14:11.938Z,6.22
2019-04-22T04:26:48.176Z,6.30
2019-04-22T04:29:19.498Z,5.95
2019-04-22T04:33:54.421Z,5.90
2019-04-22T04:38:53.882Z,5.90
2019-04-22T04:41:30.860Z,5.78
2019-04-22T04:43:57.907Z,6.22
2019-04-22T04:46:33.191Z,6.60
2019-04-22T04:48:58.525Z,5.92
2019-04-22T04:51:23.941Z,6.30
2019-04-22T04:53:41.774Z,5.65
2019-04-22T04:56:21.042Z,5.87
2019-04-22T05:01:20.969Z,6.17
2019-04-22T05:03:49.748Z,5.75
2019-04-22T05:06:09.480Z,5.42
2019-04-22T05:08:54.702Z,5.97
2019-04-22T05:13:41.157Z,6.33
2019-04-22T05:16:17.353Z,6.28
2019-04-22T05:18:29.662Z,6.35
2019-04-22T05:25:53.726Z,5.97
2019-04-22T05:28:15.194Z,6.65
2019-04-22T05:30:45.794Z,6.70
2019-04-22T05:33:14.339Z,6.22
2019-04-22T05:35:46.359Z,6.75
2019-04-22T05:38:17.458Z,7.15
2019-04-22T05:40:34.874Z,6.42
2019-04-22T05:43:29.143Z,6.90
2019-04-22T05:45:39.935Z,6.95
2019-04-22T05:48:15.002Z,7.10
2019-04-22T05:50:37.304Z,7.08
2019-04-22T05:53:19.899Z,6.92
2019-04-22T05:55:45.241Z,6.62
2019-04-22T06:03:03.500Z,7.78
2019-04-22T06:05:35.780Z,7.80
2019-04-22T06:08:03.655Z,6.72
2019-04-22T06:10:45.355Z,6.92
2019-04-22T06:13:06.558Z,7.10
2019-04-22T06:15:33.911Z,7.10
2019-04-22T06:20:51.804Z,6.80
2019-04-22T06:23:18.601Z,6.78
2019-04-22T06:30:41.408Z,6.95
2019-04-22T06:33:13.213Z,6.60
2019-04-22T06:35:43.895Z,6.83
2019-04-22T06:40:31.698Z,6.97
2019-04-22T06:43:06.108Z,6.33
2019-04-22T06:48:19.519Z,6.37
2019-04-22T06:50:40.179Z,6.45
2019-04-22T06:55:35.630Z,6.83
2019-04-22T06:57:59.793Z,6.87
2019-04-22T07:00:38.103Z,6.28
2019-04-22T07:05:33.945Z,6.60
2019-04-22T07:08:13.670Z,5.65
2019-04-22T07:10:35.010Z,6.65
2019-04-22T07:12:54.327Z,7.78
2019-04-22T07:15:47.125Z,6.22
2019-04-22T07:20:30.411Z,6.55
2019-04-22T07:23:01.943Z,6.95
2019-04-22T07:25:36.322Z,5.75
2019-04-22T07:28:01.408Z,6.80
2019-04-22T07:30:35.599Z,7.28
2019-04-22T07:35:36.517Z,6.67
2019-04-22T07:38:04.623Z,6.55
2019-04-22T07:40:37.369Z,6.72
2019-04-22T07:43:04.281Z,6.05
2019-04-22T07:48:11.247Z,6.10
2019-04-22T07:50:44.479Z,6.33
2019-04-22T07:52:55.917Z,6.55
2019-04-22T07:55:29.397Z,6.90
2019-04-22T07:57:58.291Z,5.83
2019-04-22T08:00:37.296Z,5.97
2019-04-22T08:05:47.709Z,7.50
2019-04-22T08:08:09.544Z,7.62
2019-04-22T08:13:09.270Z,10.88
2019-04-22T08:15:41.507Z,8.33
2019-04-22T08:18:07.010Z,8.00
2019-04-22T08:20:39.209Z,7.78
2019-04-22T08:25:34.875Z,6.20
2019-04-22T08:28:03.333Z,6.97
2019-04-22T08:33:04.458Z,6.20
2019-04-22T08:38:03.774Z,5.20
2019-04-22T08:40:38.803Z,5.75
2019-04-22T08:43:13.971Z,5.20
2019-04-22T08:45:40.141Z,5.03
2019-04-22T08:48:01.620Z,4.80
2019-04-22T08:50:42.508Z,4.95
2019-04-22T08:53:10.903Z,5.55
2019-04-22T08:55:41.346Z,5.60
2019-04-22T09:00:39.760Z,5.87
2019-04-22T09:03:04.749Z,5.60
2019-04-22T09:06:02.833Z,6.03
2019-04-22T09:08:07.429Z,5.47
2019-04-22T09:10:37.737Z,5.75
2019-04-22T09:13:13.901Z,5.70
2019-04-22T09:15:34.333Z,5.55
2019-04-22T09:18:02.428Z,5.50
2019-04-22T09:20:32.656Z,5.22
2019-04-22T09:25:34.666Z,5.87
2019-04-22T09:28:01.928Z,6.08
2019-04-22T09:30:43.293Z,5.15
2019-04-22T09:33:06.035Z,4.83
2019-04-22T09:38:12.039Z,5.00
2019-04-22T09:40:34.520Z,5.62
2019-04-22T09:43:04.689Z,5.55
2019-04-22T09:45:29.148Z,4.87
2019-04-22T09:50:36.831Z,5.17
2019-04-22T09:53:02.102Z,5.40
2019-04-22T09:55:29.862Z,5.10
2019-04-22T10:00:37.645Z,5.08
2019-04-22T10:03:11.563Z,6.03
2019-04-22T10:05:32.611Z,5.37
2019-04-22T10:08:14.892Z,5.20
2019-04-22T10:10:39.445Z,5.30
2019-04-22T10:13:03.193Z,5.62
2019-04-22T10:15:36.215Z,4.95
2019-04-22T10:18:02.722Z,4.30
2019-04-22T10:20:31.410Z,4.25
2019-04-22T10:22:57.415Z,4.92
2019-04-22T10:25:32.849Z,4.12
2019-04-22T10:30:41.743Z,4.35
2019-04-22T10:32:59.187Z,4.72
2019-04-22T10:35:15.444Z,5.10
2019-04-22T10:37:40.396Z,5.25
2019-04-22T10:40:13.611Z,4.92
2019-04-22T10:42:41.363Z,4.80
2019-04-22T10:45:12.245Z,4.10
2019-04-22T10:47:40.384Z,5.20
2019-04-22T10:50:10.304Z,5.10
2019-04-22T10:52:37.267Z,4.20
2019-04-22T10:55:07.849Z,4.45
2019-04-22T10:57:35.969Z,4.62
2019-04-22T11:00:06.995Z,4.20
2019-04-22T11:05:06.132Z,4.58
2019-04-22T11:07:40.391Z,4.83
2019-04-22T11:10:22.812Z,4.12
2019-04-22T11:12:35.529Z,4.58
2019-04-22T11:15:01.118Z,4.25
2019-04-22T11:17:29.300Z,4.28
2019-04-22T11:19:57.464Z,5.53
2019-04-22T11:22:30.018Z,5.20
2019-04-22T11:24:57.368Z,4.67
2019-04-22T11:27:23.293Z,4.30
2019-04-22T11:29:50.392Z,3.85
2019-04-22T11:32:18.274Z,4.47
2019-04-22T11:34:47.002Z,4.78
2019-04-22T11:37:14.644Z,5.62
2019-04-22T11:39:42.612Z,4.00
2019-04-22T11:42:10.058Z,4.33
2019-04-22T11:44:37.286Z,3.83
2019-04-22T11:47:05.346Z,4.97
2019-04-22T11:49:32.258Z,4.92
2019-04-22T11:52:00.994Z,5.58
2019-04-22T11:54:28.623Z,4.87
2019-04-22T11:56:56.828Z,4.62
2019-04-22T11:59:24.900Z,4.83
2019-04-22T12:01:52.947Z,5.05
2019-04-22T12:04:20.231Z,4.85
2019-04-22T12:06:47.262Z,4.67
2019-04-22T12:09:17.368Z,4.15
2019-04-22T12:11:44.925Z,4.70
2019-04-22T12:14:11.977Z,4.28
2019-04-22T12:16:39.396Z,4.17
2019-04-22T12:19:07.124Z,4.67
2019-04-22T12:21:35.198Z,4.50
2019-04-22T12:24:03.424Z,4.53
2019-04-22T12:26:30.816Z,4.20
2019-04-22T12:28:57.616Z,4.50
2019-04-22T12:31:24.430Z,4.42
2019-04-22T12:33:51.301Z,4.33
2019-04-22T12:36:18.329Z,4.62
2019-04-22T12:38:45.493Z,4.55
2019-04-22T12:41:13.995Z,4.22
2019-04-22T12:43:41.086Z,4.58
2019-04-22T12:46:10.136Z,4.22
2019-04-22T12:48:37.356Z,4.75
2019-04-22T12:51:05.014Z,4.28
2019-04-22T12:53:32.097Z,4.28
2019-04-22T12:55:59.453Z,3.60
2019-04-22T12:58:27.762Z,3.90
2019-04-22T13:00:54.669Z,3.67
2019-04-22T13:03:22.278Z,4.15
2019-04-22T13:05:49.553Z,4.17
2019-04-22T13:08:18.051Z,4.28
2019-04-22T13:10:53.309Z,3.92
2019-04-22T13:13:15.322Z,3.50
2019-04-22T13:15:42.456Z,4.35
2019-04-22T13:18:19.069Z,3.75
2019-04-22T13:20:38.647Z,4.35
2019-04-22T13:23:07.577Z,4.90
2019-04-22T13:25:34.887Z,4.30
2019-04-22T13:28:03.018Z,4.47
2019-04-22T13:30:30.602Z,4.20
2019-04-22T13:32:58.740Z,4.80
2019-04-22T13:35:26.735Z,4.12
2019-04-22T13:37:55.082Z,3.45
2019-04-22T13:40:23.328Z,4.22
2019-04-22T13:42:51.195Z,4.25
2019-04-22T13:45:19.857Z,4.55
2019-04-22T13:48:02.972Z,4.67
2019-04-22T13:50:50.028Z,4.00
2019-04-22T13:53:31.889Z,4.80
2019-04-22T13:57:58.361Z,3.73
2019-04-22T14:00:26.899Z,3.70
2019-04-22T14:03:10.608Z,4.90
2019-04-22T14:05:40.587Z,4.30
2019-04-22T14:08:08.718Z,4.63
2019-04-22T14:10:36.431Z,3.87
2019-04-22T14:13:04.034Z,4.15
2019-04-22T14:15:31.961Z,4.17
2019-04-22T14:18:00.895Z,4.75
2019-04-22T14:20:30.572Z,3.98
2019-04-22T14:22:58.675Z,3.62
2019-04-22T14:25:26.027Z,3.75
2019-04-22T14:28:01.501Z,4.00
2019-04-22T14:30:22.369Z,4.22
2019-04-22T14:32:49.295Z,4.37
2019-04-22T14:35:16.880Z,4.08
2019-04-22T14:37:43.754Z,4.03
2019-04-22T14:40:13.610Z,3.85
2019-04-22T14:43:03.569Z,3.87
2019-04-22T14:45:42.595Z,4.47
2019-04-22T14:48:07.155Z,3.58
2019-04-22T14:50:29.304Z,4.28
2019-04-22T14:52:58.331Z,3.40
2019-04-22T14:55:16.953Z,3.37
2019-04-22T14:57:38.348Z,3.83
2019-04-22T15:00:11.516Z,3.92
2019-04-22T15:02:39.519Z,3.58
2019-04-22T15:05:08.166Z,3.50
2019-04-22T15:07:35.125Z,3.90
2019-04-22T15:10:08.238Z,3.58
2019-04-22T15:12:43.694Z,3.17
2019-04-22T15:15:27.228Z,3.80
2019-04-22T15:18:00.973Z,3.77
2019-04-22T15:20:49.217Z,3.75
2019-04-22T15:23:15.016Z,3.52
2019-04-22T15:25:42.040Z,3.42
2019-04-22T15:28:09.198Z,3.37
2019-04-22T15:30:37.395Z,3.17
2019-04-22T15:33:05.510Z,3.30
2019-04-22T15:35:33.551Z,3.75
2019-04-22T15:38:01.503Z,3.95
2019-04-22T15:40:29.064Z,4.30
2019-04-22T15:42:56.962Z,3.95
2019-04-22T15:45:25.745Z,4.47
2019-04-22T15:47:53.227Z,4.03
2019-04-22T15:50:20.027Z,3.72
2019-04-22T15:52:51.529Z,3.67
2019-04-22T15:55:16.485Z,4.00
2019-04-22T15:57:43.954Z,3.75
2019-04-22T16:00:27.607Z,3.67
2019-04-22T16:02:41.418Z,3.98
2019-04-22T16:05:09.006Z,3.75
2019-04-22T16:07:36.117Z,3.47
2019-04-22T16:10:08.021Z,4.83
2019-04-22T16:12:44.118Z,3.98
2019-04-22T16:15:09.544Z,4.03
2019-04-22T16:17:37.070Z,3.90
2019-04-22T16:20:06.852Z,3.65
2019-04-22T16:22:52.045Z,3.60
2019-04-22T16:25:20.624Z,3.85
2019-04-22T16:27:48.196Z,3.87
2019-04-22T16:30:17.159Z,4.35
2019-04-22T16:32:45.333Z,3.40
2019-04-22T16:35:13.005Z,3.67
2019-04-22T16:37:41.003Z,3.37
2019-04-22T16:40:09.327Z,3.77
2019-04-22T16:42:45.417Z,3.65
2019-04-22T16:45:07.571Z,3.33
2019-04-22T16:47:35.583Z,3.85
2019-04-22T16:50:05.788Z,4.03
2019-04-22T16:52:34.183Z,3.72
2019-04-22T16:55:01.306Z,3.98
2019-04-22T16:57:28.158Z,3.00
2019-04-22T16:59:55.191Z,3.60
2019-04-22T17:02:30.729Z,3.15
2019-04-22T17:05:05.535Z,3.37
2019-04-22T17:07:32.395Z,3.45
2019-04-22T17:09:59.816Z,3.35
2019-04-22T17:12:38.473Z,3.50
2019-04-22T17:15:00.715Z,4.20
2019-04-22T17:17:24.607Z,3.10
2019-04-22T17:19:51.476Z,3.30
2019-04-22T17:22:19.747Z,3.02
2019-04-22T17:24:47.926Z,3.60
2019-04-22T17:27:15.071Z,3.33
2019-04-22T17:29:41.879Z,3.27
2019-04-22T17:32:13.271Z,3.12
2019-04-22T17:34:37.505Z,3.02
2019-04-22T17:37:11.238Z,3.52
2019-04-22T17:39:45.320Z,3.62
2019-04-22T17:42:25.386Z,3.52
2019-04-22T17:44:57.108Z,2.98
2019-04-22T17:47:23.600Z,3.83
2019-04-22T17:50:00.193Z,3.65
2019-04-22T17:52:32.874Z,2.95
2019-04-22T17:54:51.668Z,3.10
2019-04-22T17:57:31.735Z,2.77
2019-04-22T17:59:54.777Z,2.87
2019-04-22T18:02:23.887Z,2.77
2019-04-22T18:04:38.744Z,2.87
2019-04-22T18:07:31.250Z,2.47
2019-04-22T18:12:25.290Z,2.37
2019-04-22T18:14:52.914Z,2.87
2019-04-22T18:17:17.345Z,2.90
2019-04-22T18:19:46.272Z,3.35
2019-04-22T18:22:10.109Z,3.12
2019-04-22T18:24:32.524Z,2.95
2019-04-22T18:27:19.801Z,3.00
2019-04-22T18:29:39.739Z,3.20
2019-04-22T18:31:58.176Z,3.10
2019-04-22T18:34:34.259Z,2.47
2019-04-22T18:37:03.977Z,3.20
2019-04-22T18:39:42.342Z,2.75
2019-04-22T18:42:03.399Z,3.17
2019-04-22T18:44:36.499Z,3.60
2019-04-22T18:47:03.701Z,2.58
2019-04-22T18:49:33.648Z,2.85
2019-04-22T18:52:04.513Z,2.80
2019-04-22T18:54:51.918Z,2.62
2019-04-22T18:57:15.699Z,2.40
2019-04-22T18:59:34.099Z,2.95
2019-04-22T19:02:01.429Z,2.85
2019-04-22T19:04:37.700Z,3.08
2019-04-22T19:07:17.199Z,2.77
2019-04-22T19:09:48.432Z,2.87
2019-04-22T19:12:22.810Z,2.60
2019-04-22T19:17:21.453Z,3.40
2019-04-22T19:19:43.623Z,4.05
2019-04-22T19:22:03.980Z,3.10
2019-04-22T19:24:37.169Z,3.12
2019-04-22T19:27:02.958Z,2.95
2019-04-22T19:29:41.747Z,3.25
2019-04-22T19:32:01.826Z,3.10
2019-04-22T19:34:32.001Z,3.50
2019-04-22T19:37:03.518Z,5.47
2019-04-22T19:39:27.580Z,6.12
2019-04-22T19:42:08.430Z,6.37
2019-04-22T19:44:34.255Z,5.58
2019-04-22T19:47:14.515Z,4.17
2019-04-22T19:49:34.473Z,4.67
2019-04-22T19:52:05.562Z,4.20
2019-04-22T19:54:23.225Z,4.35
2019-04-22T19:56:48.611Z,3.83
2019-04-22T19:59:14.877Z,4.20
2019-04-22T20:04:47.738Z,5.08
2019-04-22T20:09:43.747Z,5.00
2019-04-22T20:12:04.360Z,4.95
2019-04-22T20:14:35.773Z,5.22
2019-04-22T20:17:00.639Z,5.35
2019-04-22T20:19:41.571Z,4.78
2019-04-22T20:22:02.888Z,4.75
2019-04-22T20:24:18.134Z,4.42
2019-04-22T20:27:02.867Z,4.15
2019-04-22T20:29:40.069Z,3.90
2019-04-22T20:31:59.287Z,4.35
2019-04-22T20:34:32.086Z,3.70
2019-04-22T20:37:03.714Z,3.98
2019-04-22T20:39:36.006Z,3.80
2019-04-22T20:44:29.464Z,4.95
2019-04-22T20:46:53.165Z,3.62
2019-04-22T20:49:27.727Z,3.52
2019-04-22T20:52:01.386Z,3.85
2019-04-22T20:54:19.315Z,3.67
2019-04-22T20:56:47.765Z,4.25
2019-04-22T20:59:21.856Z,4.00
2019-04-22T21:01:46.917Z,4.50
2019-04-22T21:04:01.872Z,4.08
2019-04-22T21:06:42.790Z,8.85
2019-04-22T21:09:18.363Z,4.47
2019-04-22T21:11:40.304Z,4.40
2019-04-22T21:14:11.577Z,6.97
2019-04-22T21:16:43.090Z,8.15
2019-04-22T21:19:20.021Z,7.35
2019-04-22T21:21:46.684Z,6.90
2019-04-22T21:23:59.448Z,7.30
2019-04-22T21:26:36.026Z,7.08
2019-04-22T21:29:03.696Z,6.42
2019-04-22T21:31:52.127Z,6.78
2019-04-22T21:34:04.169Z,6.60
2019-04-22T21:36:38.077Z,5.97
2019-04-22T21:39:00.511Z,5.08
2019-04-22T21:41:29.292Z,5.12
2019-04-22T21:43:59.527Z,4.33
2019-04-22T21:46:28.801Z,4.70
2019-04-22T21:49:00.146Z,4.35
2019-04-22T21:51:32.747Z,4.83
2019-04-22T21:54:00.401Z,4.35
2019-04-22T21:56:35.339Z,4.25
2019-04-22T21:59:00.118Z,5.97
2019-04-22T22:01:38.100Z,6.70
2019-04-22T22:04:00.233Z,6.58
2019-04-22T22:06:20.076Z,6.10
2019-04-22T22:08:59.440Z,6.65
2019-04-22T22:11:24.565Z,6.35
2019-04-22T22:13:51.499Z,6.30
2019-04-22T22:16:18.798Z,5.60
2019-04-22T22:18:57.330Z,6.55
2019-04-22T22:23:49.383Z,6.12
2019-04-22T22:26:12.364Z,12.70
2019-04-22T22:29:05.254Z,6.25
2019-04-22T22:31:22.256Z,6.15
2019-04-22T22:33:41.857Z,6.10
2019-04-22T22:36:08.739Z,7.50
2019-04-22T22:38:35.195Z,5.60
2019-04-22T22:40:50.080Z,4.72
2019-04-22T22:43:26.802Z,4.83
2019-04-22T22:45:58.760Z,5.20
2019-04-22T22:48:41.378Z,4.85
2019-04-22T22:51:05.380Z,5.45
2019-04-22T22:53:38.669Z,5.72
2019-04-22T22:56:06.290Z,4.62
2019-04-22T22:58:37.547Z,5.30
2019-04-22T23:00:53.544Z,6.58
2019-04-22T23:05:57.450Z,6.58
2019-04-22T23:08:49.209Z,8.15
2019-04-22T23:11:00.351Z,8.45
2019-04-22T23:13:25.827Z,9.08
2019-04-22T23:15:44.313Z,10.40
2019-04-22T23:18:01.701Z,10.80
2019-04-22T23:20:34.359Z,10.03
2019-04-22T23:23:34.660Z,10.40
2019-04-22T23:25:54.699Z,10.48
2019-04-22T23:28:14.615Z,9.43
2019-04-22T23:30:56.998Z,8.30
2019-04-22T23:33:40.543Z,7.53
2019-04-22T23:36:10.753Z,7.62
2019-04-22T23:38:54.927Z,9.08
2019-04-22T23:41:38.876Z,9.58
2019-04-22T23:44:12.819Z,10.72
2019-04-22T23:46:29.042Z,10.88
2019-04-22T23:49:04.419Z,11.20
2019-04-22T23:51:32.758Z,11.70
2019-04-22T23:54:09.082Z,11.28
2019-04-22T23:56:29.492Z,13.38
